sensor_id;sensor_type;location;lat;lon;timestamp;P1;durP1;ratioP1;P2;durP2;ratioP2
51578;SDS011;47998;53.242;6.386;2022-12-10T00:01:41;126.90;;;44.50;;
51578;SDS011;47998;53.242;6.386;2022-12-10T00:04:08;138.57;;;42.20;;
51578;SDS011;47998;53.242;6.386;2022-12-10T00:06:34;128.07;;;39.23;;
51578;SDS011;47998;53.242;6.386;2022-12-10T00:09:03;121.77;;;41.27;;
51578;SDS011;47998;53.242;6.386;2022-12-10T00:11:30;134.37;;;41.23;;
51578;SDS011;47998;53.242;6.386;2022-12-10T00:13:57;108.60;;;39.13;;
51578;SDS011;47998;53.242;6.386;2022-12-10T00:16:23;122.60;;;40.27;;
51578;SDS011;47998;53.242;6.386;2022-12-10T00:18:51;114.63;;;39.90;;
51578;SDS011;47998;53.242;6.386;2022-12-10T00:21:19;124.00;;;40.57;;
51578;SDS011;47998;53.242;6.386;2022-12-10T00:23:50;119.57;;;40.63;;
51578;SDS011;47998;53.242;6.386;2022-12-10T00:26:17;120.87;;;41.17;;
51578;SDS011;47998;53.242;6.386;2022-12-10T00:28:44;118.50;;;40.50;;
51578;SDS011;47998;53.242;6.386;2022-12-10T00:31:15;130.57;;;41.43;;
51578;SDS011;47998;53.242;6.386;2022-12-10T00:33:43;123.93;;;41.20;;
51578;SDS011;47998;53.242;6.386;2022-12-10T00:36:11;131.53;;;43.50;;
51578;SDS011;47998;53.242;6.386;2022-12-10T00:38:42;130.70;;;42.40;;
51578;SDS011;47998;53.242;6.386;2022-12-10T00:41:08;128.37;;;42.17;;
51578;SDS011;47998;53.242;6.386;2022-12-10T00:43:34;123.83;;;41.07;;
51578;SDS011;47998;53.242;6.386;2022-12-10T00:46:00;135.07;;;41.03;;
51578;SDS011;47998;53.242;6.386;2022-12-10T00:48:26;138.60;;;42.10;;
51578;SDS011;47998;53.242;6.386;2022-12-10T00:50:56;124.30;;;41.63;;
51578;SDS011;47998;53.242;6.386;2022-12-10T00:53:22;133.73;;;42.83;;
51578;SDS011;47998;53.242;6.386;2022-12-10T00:55:49;148.00;;;43.47;;
51578;SDS011;47998;53.242;6.386;2022-12-10T00:58:14;138.60;;;43.50;;
51578;SDS011;47998;53.242;6.386;2022-12-10T01:00:40;137.00;;;42.87;;
51578;SDS011;47998;53.242;6.386;2022-12-10T01:03:05;135.53;;;43.63;;
51578;SDS011;47998;53.242;6.386;2022-12-10T01:05:31;151.33;;;45.20;;
51578;SDS011;47998;53.242;6.386;2022-12-10T01:07:57;144.43;;;44.20;;
51578;SDS011;47998;53.242;6.386;2022-12-10T01:10:22;145.90;;;44.57;;
51578;SDS011;47998;53.242;6.386;2022-12-10T01:12:48;136.23;;;46.03;;
51578;SDS011;47998;53.242;6.386;2022-12-10T01:15:14;149.10;;;44.30;;
51578;SDS011;47998;53.242;6.386;2022-12-10T01:17:39;146.03;;;45.87;;
51578;SDS011;47998;53.242;6.386;2022-12-10T01:20:05;146.10;;;44.67;;
51578;SDS011;47998;53.242;6.386;2022-12-10T01:22:31;146.73;;;44.63;;
51578;SDS011;47998;53.242;6.386;2022-12-10T01:24:57;139.00;;;46.53;;
51578;SDS011;47998;53.242;6.386;2022-12-10T01:27:23;143.27;;;44.27;;
51578;SDS011;47998;53.242;6.386;2022-12-10T01:29:49;145.50;;;45.07;;
51578;SDS011;47998;53.242;6.386;2022-12-10T01:32:14;139.33;;;43.23;;
51578;SDS011;47998;53.242;6.386;2022-12-10T01:34:40;146.20;;;43.47;;
51578;SDS011;47998;53.242;6.386;2022-12-10T01:37:05;137.93;;;44.03;;
51578;SDS011;47998;53.242;6.386;2022-12-10T01:39:31;127.77;;;43.80;;
51578;SDS011;47998;53.242;6.386;2022-12-10T01:41:58;134.77;;;43.37;;
51578;SDS011;47998;53.242;6.386;2022-12-10T01:46:51;143.10;;;45.13;;
51578;SDS011;47998;53.242;6.386;2022-12-10T01:49:20;135.60;;;44.63;;
51578;SDS011;47998;53.242;6.386;2022-12-10T01:51:54;139.93;;;43.33;;
51578;SDS011;47998;53.242;6.386;2022-12-10T01:54:25;149.13;;;44.73;;
51578;SDS011;47998;53.242;6.386;2022-12-10T01:56:58;140.80;;;42.23;;
51578;SDS011;47998;53.242;6.386;2022-12-10T01:59:35;145.23;;;43.03;;
51578;SDS011;47998;53.242;6.386;2022-12-10T02:04:53;142.50;;;44.60;;
51578;SDS011;47998;53.242;6.386;2022-12-10T02:07:43;136.83;;;42.13;;
51578;SDS011;47998;53.242;6.386;2022-12-10T02:15:52;161.43;;;45.70;;
51578;SDS011;47998;53.242;6.386;2022-12-10T02:18:37;146.13;;;46.37;;
51578;SDS011;47998;53.242;6.386;2022-12-10T02:21:13;156.83;;;45.53;;
51578;SDS011;47998;53.242;6.386;2022-12-10T02:23:45;145.17;;;44.53;;
51578;SDS011;47998;53.242;6.386;2022-12-10T02:27:16;160.57;;;47.33;;
51578;SDS011;47998;53.242;6.386;2022-12-10T02:29:21;157.20;;;45.93;;
51578;SDS011;47998;53.242;6.386;2022-12-10T02:32:14;157.17;;;46.53;;
51578;SDS011;47998;53.242;6.386;2022-12-10T02:34:45;158.90;;;45.57;;
51578;SDS011;47998;53.242;6.386;2022-12-10T02:37:22;151.77;;;44.87;;
51578;SDS011;47998;53.242;6.386;2022-12-10T02:39:53;159.43;;;46.67;;
51578;SDS011;47998;53.242;6.386;2022-12-10T02:42:22;154.70;;;44.17;;
51578;SDS011;47998;53.242;6.386;2022-12-10T02:44:50;155.50;;;45.73;;
51578;SDS011;47998;53.242;6.386;2022-12-10T02:47:19;150.07;;;44.63;;
51578;SDS011;47998;53.242;6.386;2022-12-10T02:49:46;157.27;;;47.13;;
51578;SDS011;47998;53.242;6.386;2022-12-10T02:52:15;153.07;;;46.47;;
51578;SDS011;47998;53.242;6.386;2022-12-10T02:54:44;144.20;;;45.30;;
51578;SDS011;47998;53.242;6.386;2022-12-10T02:57:20;142.93;;;44.40;;
51578;SDS011;47998;53.242;6.386;2022-12-10T03:00:00;149.17;;;43.93;;
51578;SDS011;47998;53.242;6.386;2022-12-10T03:02:34;154.90;;;44.33;;
51578;SDS011;47998;53.242;6.386;2022-12-10T03:05:18;145.47;;;41.73;;
51578;SDS011;47998;53.242;6.386;2022-12-10T03:10:40;139.27;;;44.57;;
51578;SDS011;47998;53.242;6.386;2022-12-10T03:13:14;152.43;;;45.97;;
51578;SDS011;47998;53.242;6.386;2022-12-10T03:15:42;150.23;;;43.90;;
51578;SDS011;47998;53.242;6.386;2022-12-10T03:18:10;154.77;;;45.87;;
51578;SDS011;47998;53.242;6.386;2022-12-10T03:20:38;163.60;;;46.40;;
51578;SDS011;47998;53.242;6.386;2022-12-10T03:23:07;178.93;;;48.37;;
51578;SDS011;47998;53.242;6.386;2022-12-10T03:25:35;170.93;;;50.10;;
51578;SDS011;47998;53.242;6.386;2022-12-10T03:28:02;177.33;;;50.23;;
51578;SDS011;47998;53.242;6.386;2022-12-10T03:30:30;162.10;;;48.53;;
51578;SDS011;47998;53.242;6.386;2022-12-10T03:32:58;180.37;;;51.80;;
51578;SDS011;47998;53.242;6.386;2022-12-10T03:35:25;192.27;;;50.13;;
51578;SDS011;47998;53.242;6.386;2022-12-10T03:37:52;182.77;;;52.30;;
51578;SDS011;47998;53.242;6.386;2022-12-10T03:40:20;187.17;;;50.63;;
51578;SDS011;47998;53.242;6.386;2022-12-10T03:42:49;189.47;;;53.60;;
51578;SDS011;47998;53.242;6.386;2022-12-10T03:45:14;181.03;;;52.67;;
51578;SDS011;47998;53.242;6.386;2022-12-10T03:47:40;189.67;;;53.27;;
51578;SDS011;47998;53.242;6.386;2022-12-10T03:50:07;199.43;;;56.23;;
51578;SDS011;47998;53.242;6.386;2022-12-10T03:52:33;181.33;;;52.40;;
51578;SDS011;47998;53.242;6.386;2022-12-10T03:54:59;202.20;;;56.53;;
51578;SDS011;47998;53.242;6.386;2022-12-10T03:57:25;211.70;;;58.00;;
51578;SDS011;47998;53.242;6.386;2022-12-10T03:59:50;202.17;;;55.20;;
51578;SDS011;47998;53.242;6.386;2022-12-10T04:02:16;192.30;;;53.83;;
51578;SDS011;47998;53.242;6.386;2022-12-10T04:04:42;184.47;;;52.30;;
51578;SDS011;47998;53.242;6.386;2022-12-10T04:07:07;199.50;;;53.53;;
51578;SDS011;47998;53.242;6.386;2022-12-10T04:09:34;198.00;;;54.10;;
51578;SDS011;47998;53.242;6.386;2022-12-10T04:12:00;204.57;;;57.60;;
51578;SDS011;47998;53.242;6.386;2022-12-10T04:14:28;177.87;;;50.80;;
51578;SDS011;47998;53.242;6.386;2022-12-10T04:17:12;203.87;;;53.87;;
51578;SDS011;47998;53.242;6.386;2022-12-10T04:19:38;183.23;;;48.73;;
51578;SDS011;47998;53.242;6.386;2022-12-10T04:22:04;182.40;;;47.97;;
51578;SDS011;47998;53.242;6.386;2022-12-10T04:24:48;269.90;;;60.37;;
51578;SDS011;47998;53.242;6.386;2022-12-10T04:27:33;266.67;;;61.57;;
51578;SDS011;47998;53.242;6.386;2022-12-10T04:30:02;264.47;;;60.33;;
51578;SDS011;47998;53.242;6.386;2022-12-10T04:32:29;232.20;;;57.70;;
51578;SDS011;47998;53.242;6.386;2022-12-10T04:34:55;251.20;;;56.93;;
51578;SDS011;47998;53.242;6.386;2022-12-10T04:37:21;254.37;;;56.83;;
51578;SDS011;47998;53.242;6.386;2022-12-10T04:39:51;227.73;;;52.47;;
51578;SDS011;47998;53.242;6.386;2022-12-10T04:42:17;309.27;;;63.50;;
51578;SDS011;47998;53.242;6.386;2022-12-10T04:44:44;330.57;;;62.93;;
51578;SDS011;47998;53.242;6.386;2022-12-10T04:47:10;345.90;;;65.97;;
51578;SDS011;47998;53.242;6.386;2022-12-10T04:49:36;403.93;;;67.40;;
51578;SDS011;47998;53.242;6.386;2022-12-10T04:52:03;331.60;;;55.70;;
51578;SDS011;47998;53.242;6.386;2022-12-10T04:54:30;442.13;;;69.57;;
51578;SDS011;47998;53.242;6.386;2022-12-10T04:56:56;448.07;;;69.97;;
51578;SDS011;47998;53.242;6.386;2022-12-10T04:59:21;469.47;;;69.93;;
51578;SDS011;47998;53.242;6.386;2022-12-10T05:01:47;417.40;;;58.23;;
51578;SDS011;47998;53.242;6.386;2022-12-10T05:04:14;538.93;;;67.87;;
51578;SDS011;47998;53.242;6.386;2022-12-10T05:06:41;451.67;;;62.47;;
51578;SDS011;47998;53.242;6.386;2022-12-10T05:09:08;429.37;;;64.70;;
51578;SDS011;47998;53.242;6.386;2022-12-10T05:11:35;333.33;;;45.97;;
51578;SDS011;47998;53.242;6.386;2022-12-10T05:14:01;580.93;;;74.77;;
51578;SDS011;47998;53.242;6.386;2022-12-10T05:16:28;529.63;;;66.80;;
51578;SDS011;47998;53.242;6.386;2022-12-10T05:18:55;661.87;;;76.20;;
51578;SDS011;47998;53.242;6.386;2022-12-10T05:21:22;467.60;;;59.60;;
51578;SDS011;47998;53.242;6.386;2022-12-10T05:23:49;692.20;;;81.53;;
51578;SDS011;47998;53.242;6.386;2022-12-10T05:26:18;433.93;;;51.83;;
51578;SDS011;47998;53.242;6.386;2022-12-10T05:31:13;440.10;;;57.30;;
51578;SDS011;47998;53.242;6.386;2022-12-10T05:33:43;517.33;;;60.27;;
51578;SDS011;47998;53.242;6.386;2022-12-10T05:36:10;568.80;;;71.77;;
51578;SDS011;47998;53.242;6.386;2022-12-10T05:38:38;639.43;;;76.93;;
51578;SDS011;47998;53.242;6.386;2022-12-10T05:41:05;454.10;;;59.33;;
51578;SDS011;47998;53.242;6.386;2022-12-10T05:43:42;442.77;;;59.60;;
51578;SDS011;47998;53.242;6.386;2022-12-10T05:46:15;526.20;;;63.67;;
51578;SDS011;47998;53.242;6.386;2022-12-10T05:48:43;597.57;;;70.23;;
51578;SDS011;47998;53.242;6.386;2022-12-10T05:51:13;602.60;;;74.63;;
51578;SDS011;47998;53.242;6.386;2022-12-10T05:53:40;618.57;;;73.10;;
51578;SDS011;47998;53.242;6.386;2022-12-10T05:56:10;569.63;;;66.10;;
51578;SDS011;47998;53.242;6.386;2022-12-10T05:58:37;631.20;;;73.97;;
51578;SDS011;47998;53.242;6.386;2022-12-10T06:01:07;538.20;;;63.93;;
51578;SDS011;47998;53.242;6.386;2022-12-10T06:03:35;499.33;;;64.70;;
51578;SDS011;47998;53.242;6.386;2022-12-10T06:06:01;474.83;;;61.13;;
51578;SDS011;47998;53.242;6.386;2022-12-10T06:08:27;495.73;;;65.07;;
51578;SDS011;47998;53.242;6.386;2022-12-10T06:10:52;482.90;;;59.90;;
51578;SDS011;47998;53.242;6.386;2022-12-10T06:13:19;423.13;;;57.93;;
51578;SDS011;47998;53.242;6.386;2022-12-10T06:15:45;355.80;;;52.97;;
51578;SDS011;47998;53.242;6.386;2022-12-10T06:18:11;474.67;;;62.63;;
51578;SDS011;47998;53.242;6.386;2022-12-10T06:20:37;354.60;;;50.90;;
51578;SDS011;47998;53.242;6.386;2022-12-10T06:23:04;405.40;;;51.77;;
51578;SDS011;47998;53.242;6.386;2022-12-10T06:25:30;455.17;;;58.03;;
51578;SDS011;47998;53.242;6.386;2022-12-10T06:27:56;315.20;;;48.93;;
51578;SDS011;47998;53.242;6.386;2022-12-10T06:30:21;290.53;;;42.87;;
51578;SDS011;47998;53.242;6.386;2022-12-10T06:32:47;417.73;;;55.30;;
51578;SDS011;47998;53.242;6.386;2022-12-10T06:35:13;307.60;;;46.53;;
51578;SDS011;47998;53.242;6.386;2022-12-10T06:37:38;427.07;;;58.77;;
51578;SDS011;47998;53.242;6.386;2022-12-10T06:40:04;314.33;;;48.10;;
51578;SDS011;47998;53.242;6.386;2022-12-10T06:42:31;337.93;;;48.80;;
51578;SDS011;47998;53.242;6.386;2022-12-10T06:44:56;362.40;;;46.90;;
51578;SDS011;47998;53.242;6.386;2022-12-10T06:47:22;234.07;;;37.83;;
51578;SDS011;47998;53.242;6.386;2022-12-10T06:49:48;290.10;;;46.77;;
51578;SDS011;47998;53.242;6.386;2022-12-10T06:52:14;314.73;;;44.43;;
51578;SDS011;47998;53.242;6.386;2022-12-10T06:54:39;286.93;;;41.47;;
51578;SDS011;47998;53.242;6.386;2022-12-10T06:57:05;325.77;;;48.50;;
51578;SDS011;47998;53.242;6.386;2022-12-10T06:59:31;266.10;;;40.70;;
51578;SDS011;47998;53.242;6.386;2022-12-10T07:01:57;385.27;;;54.37;;
51578;SDS011;47998;53.242;6.386;2022-12-10T07:04:23;207.37;;;35.50;;
51578;SDS011;47998;53.242;6.386;2022-12-10T07:06:48;347.13;;;49.43;;
51578;SDS011;47998;53.242;6.386;2022-12-10T07:09:14;169.07;;;33.63;;
51578;SDS011;47998;53.242;6.386;2022-12-10T07:11:41;173.23;;;32.57;;
51578;SDS011;47998;53.242;6.386;2022-12-10T07:14:07;299.60;;;47.43;;
51578;SDS011;47998;53.242;6.386;2022-12-10T07:16:36;279.17;;;43.77;;
51578;SDS011;47998;53.242;6.386;2022-12-10T07:19:02;477.73;;;61.13;;
51578;SDS011;47998;53.242;6.386;2022-12-10T07:21:32;349.07;;;46.63;;
51578;SDS011;47998;53.242;6.386;2022-12-10T07:24:01;516.00;;;64.73;;
51578;SDS011;47998;53.242;6.386;2022-12-10T07:26:47;413.50;;;53.57;;
51578;SDS011;47998;53.242;6.386;2022-12-10T07:29:17;377.73;;;51.80;;
51578;SDS011;47998;53.242;6.386;2022-12-10T07:31:45;523.30;;;61.30;;
51578;SDS011;47998;53.242;6.386;2022-12-10T07:34:13;477.73;;;58.13;;
51578;SDS011;47998;53.242;6.386;2022-12-10T07:36:39;458.43;;;60.10;;
51578;SDS011;47998;53.242;6.386;2022-12-10T07:39:07;387.43;;;54.37;;
51578;SDS011;47998;53.242;6.386;2022-12-10T07:41:34;295.10;;;44.37;;
51578;SDS011;47998;53.242;6.386;2022-12-10T07:44:01;366.67;;;49.37;;
51578;SDS011;47998;53.242;6.386;2022-12-10T07:46:28;477.23;;;56.13;;
51578;SDS011;47998;53.242;6.386;2022-12-10T07:48:55;187.80;;;31.73;;
51578;SDS011;47998;53.242;6.386;2022-12-10T07:51:22;346.13;;;48.27;;
51578;SDS011;47998;53.242;6.386;2022-12-10T07:53:48;411.57;;;57.93;;
51578;SDS011;47998;53.242;6.386;2022-12-10T07:56:17;478.50;;;56.87;;
51578;SDS011;47998;53.242;6.386;2022-12-10T07:58:43;298.70;;;46.37;;
51578;SDS011;47998;53.242;6.386;2022-12-10T08:01:11;392.00;;;53.73;;
51578;SDS011;47998;53.242;6.386;2022-12-10T08:03:39;332.53;;;48.80;;
51578;SDS011;47998;53.242;6.386;2022-12-10T08:06:08;322.37;;;40.03;;
51578;SDS011;47998;53.242;6.386;2022-12-10T08:08:36;388.20;;;50.87;;
51578;SDS011;47998;53.242;6.386;2022-12-10T08:11:03;398.33;;;52.37;;
51578;SDS011;47998;53.242;6.386;2022-12-10T08:13:29;366.87;;;52.23;;
51578;SDS011;47998;53.242;6.386;2022-12-10T08:16:02;339.47;;;50.07;;
51578;SDS011;47998;53.242;6.386;2022-12-10T08:18:50;383.60;;;49.87;;
51578;SDS011;47998;53.242;6.386;2022-12-10T08:21:17;335.83;;;47.27;;
51578;SDS011;47998;53.242;6.386;2022-12-10T08:23:45;558.03;;;63.83;;
51578;SDS011;47998;53.242;6.386;2022-12-10T08:26:13;465.40;;;61.77;;
51578;SDS011;47998;53.242;6.386;2022-12-10T08:28:47;428.37;;;56.37;;
51578;SDS011;47998;53.242;6.386;2022-12-10T08:31:14;366.07;;;50.23;;
51578;SDS011;47998;53.242;6.386;2022-12-10T08:33:40;334.90;;;49.17;;
51578;SDS011;47998;53.242;6.386;2022-12-10T08:36:07;416.37;;;55.03;;
51578;SDS011;47998;53.242;6.386;2022-12-10T08:38:35;445.20;;;54.73;;
51578;SDS011;47998;53.242;6.386;2022-12-10T08:41:08;251.33;;;40.13;;
51578;SDS011;47998;53.242;6.386;2022-12-10T08:43:42;407.07;;;50.43;;
51578;SDS011;47998;53.242;6.386;2022-12-10T08:46:08;405.00;;;51.97;;
51578;SDS011;47998;53.242;6.386;2022-12-10T08:48:35;204.17;;;35.20;;
51578;SDS011;47998;53.242;6.386;2022-12-10T08:51:02;314.83;;;39.40;;
51578;SDS011;47998;53.242;6.386;2022-12-10T08:53:29;342.47;;;46.47;;
51578;SDS011;47998;53.242;6.386;2022-12-10T08:55:55;383.33;;;53.03;;
51578;SDS011;47998;53.242;6.386;2022-12-10T08:58:21;195.97;;;38.00;;
51578;SDS011;47998;53.242;6.386;2022-12-10T09:00:47;285.03;;;45.87;;
51578;SDS011;47998;53.242;6.386;2022-12-10T09:03:14;260.50;;;44.00;;
51578;SDS011;47998;53.242;6.386;2022-12-10T09:05:40;220.47;;;37.20;;
51578;SDS011;47998;53.242;6.386;2022-12-10T09:08:06;357.93;;;47.47;;
51578;SDS011;47998;53.242;6.386;2022-12-10T09:10:32;249.53;;;39.20;;
51578;SDS011;47998;53.242;6.386;2022-12-10T09:12:57;212.73;;;33.40;;
51578;SDS011;47998;53.242;6.386;2022-12-10T09:15:23;296.33;;;43.57;;
51578;SDS011;47998;53.242;6.386;2022-12-10T09:17:49;398.93;;;52.17;;
51578;SDS011;47998;53.242;6.386;2022-12-10T09:20:14;337.27;;;54.00;;
51578;SDS011;47998;53.242;6.386;2022-12-10T09:22:40;383.30;;;105.70;;
51578;SDS011;47998;53.242;6.386;2022-12-10T09:25:06;230.57;;;39.77;;
51578;SDS011;47998;53.242;6.386;2022-12-10T09:27:39;217.18;;;36.42;;
51578;SDS011;47998;53.242;6.386;2022-12-10T09:30:05;189.60;;;33.00;;
51578;SDS011;47998;53.242;6.386;2022-12-10T09:32:31;263.30;;;39.20;;
51578;SDS011;47998;53.242;6.386;2022-12-10T09:34:57;175.87;;;32.00;;
51578;SDS011;47998;53.242;6.386;2022-12-10T09:37:22;201.17;;;31.00;;
51578;SDS011;47998;53.242;6.386;2022-12-10T09:39:48;88.47;;;21.57;;
51578;SDS011;47998;53.242;6.386;2022-12-10T09:48:04;151.30;;;27.90;;
51578;SDS011;47998;53.242;6.386;2022-12-10T09:53:25;187.17;;;36.10;;
51578;SDS011;47998;53.242;6.386;2022-12-10T09:55:53;346.23;;;52.17;;
51578;SDS011;47998;53.242;6.386;2022-12-10T09:58:20;341.97;;;73.90;;
51578;SDS011;47998;53.242;6.386;2022-12-10T10:00:52;373.37;;;74.57;;
51578;SDS011;47998;53.242;6.386;2022-12-10T10:03:24;184.77;;;36.17;;
51578;SDS011;47998;53.242;6.386;2022-12-10T10:05:50;339.50;;;67.53;;
51578;SDS011;47998;53.242;6.386;2022-12-10T10:10:47;345.57;;;55.30;;
51578;SDS011;47998;53.242;6.386;2022-12-10T10:18:41;298.37;;;46.37;;
51578;SDS011;47998;53.242;6.386;2022-12-10T10:21:17;284.70;;;43.40;;
51578;SDS011;47998;53.242;6.386;2022-12-10T10:23:50;247.33;;;38.57;;
51578;SDS011;47998;53.242;6.386;2022-12-10T10:26:16;365.67;;;47.47;;
51578;SDS011;47998;53.242;6.386;2022-12-10T10:28:42;304.80;;;42.00;;
51578;SDS011;47998;53.242;6.386;2022-12-10T10:31:28;216.33;;;36.70;;
51578;SDS011;47998;53.242;6.386;2022-12-10T10:33:56;250.50;;;41.27;;
51578;SDS011;47998;53.242;6.386;2022-12-10T10:36:27;223.30;;;39.03;;
51578;SDS011;47998;53.242;6.386;2022-12-10T10:39:07;259.00;;;40.40;;
51578;SDS011;47998;53.242;6.386;2022-12-10T10:41:50;266.73;;;38.83;;
51578;SDS011;47998;53.242;6.386;2022-12-10T10:44:19;247.60;;;38.10;;
51578;SDS011;47998;53.242;6.386;2022-12-10T10:46:48;179.20;;;34.47;;
51578;SDS011;47998;53.242;6.386;2022-12-10T10:49:21;276.87;;;43.23;;
51578;SDS011;47998;53.242;6.386;2022-12-10T10:51:47;274.90;;;41.73;;
51578;SDS011;47998;53.242;6.386;2022-12-10T10:54:30;243.13;;;37.97;;
51578;SDS011;47998;53.242;6.386;2022-12-10T10:57:02;293.57;;;44.53;;
51578;SDS011;47998;53.242;6.386;2022-12-10T10:59:35;252.77;;;40.83;;
51578;SDS011;47998;53.242;6.386;2022-12-10T11:02:13;248.30;;;40.87;;
51578;SDS011;47998;53.242;6.386;2022-12-10T11:05:03;280.43;;;55.70;;
51578;SDS011;47998;53.242;6.386;2022-12-10T11:08:00;328.87;;;54.00;;
51578;SDS011;47998;53.242;6.386;2022-12-10T11:10:32;196.50;;;37.47;;
51578;SDS011;47998;53.242;6.386;2022-12-10T11:13:03;262.33;;;51.63;;
51578;SDS011;47998;53.242;6.386;2022-12-10T11:15:37;202.63;;;35.53;;
51578;SDS011;47998;53.242;6.386;2022-12-10T11:23:39;261.07;;;42.03;;
51578;SDS011;47998;53.242;6.386;2022-12-10T11:42:56;293.00;;;45.43;;
51578;SDS011;47998;53.242;6.386;2022-12-10T11:45:24;246.17;;;41.53;;
51578;SDS011;47998;53.242;6.386;2022-12-10T11:51:00;384.80;;;54.83;;
51578;SDS011;47998;53.242;6.386;2022-12-10T11:56:03;347.23;;;49.97;;
51578;SDS011;47998;53.242;6.386;2022-12-10T11:59:06;168.80;;;34.50;;
51578;SDS011;47998;53.242;6.386;2022-12-10T12:13:24;244.33;;;47.23;;
51578;SDS011;47998;53.242;6.386;2022-12-10T12:16:38;292.57;;;49.67;;
51578;SDS011;47998;53.242;6.386;2022-12-10T12:18:53;226.57;;;36.73;;
51578;SDS011;47998;53.242;6.386;2022-12-10T12:21:29;221.67;;;36.20;;
51578;SDS011;47998;53.242;6.386;2022-12-10T12:23:59;129.67;;;24.00;;
51578;SDS011;47998;53.242;6.386;2022-12-10T12:31:39;239.07;;;35.57;;
51578;SDS011;47998;53.242;6.386;2022-12-10T12:34:18;150.73;;;27.43;;
51578;SDS011;47998;53.242;6.386;2022-12-10T12:36:49;368.77;;;47.30;;
51578;SDS011;47998;53.242;6.386;2022-12-10T12:52:58;277.17;;;38.07;;
51578;SDS011;47998;53.242;6.386;2022-12-10T12:55:29;336.80;;;50.47;;
51578;SDS011;47998;53.242;6.386;2022-12-10T13:01:00;295.80;;;42.77;;
51578;SDS011;47998;53.242;6.386;2022-12-10T13:03:41;284.07;;;43.03;;
51578;SDS011;47998;53.242;6.386;2022-12-10T13:06:13;253.33;;;37.77;;
51578;SDS011;47998;53.242;6.386;2022-12-10T13:09:32;315.33;;;42.10;;
51578;SDS011;47998;53.242;6.386;2022-12-10T13:24:18;187.17;;;33.33;;
51578;SDS011;47998;53.242;6.386;2022-12-10T13:27:03;218.00;;;36.27;;
51578;SDS011;47998;53.242;6.386;2022-12-10T13:49:03;241.00;;;39.43;;
51578;SDS011;47998;53.242;6.386;2022-12-10T14:02:42;156.77;;;31.67;;
51578;SDS011;47998;53.242;6.386;2022-12-10T14:05:54;186.53;;;34.40;;
51578;SDS011;47998;53.242;6.386;2022-12-10T14:08:00;203.50;;;36.53;;
51578;SDS011;47998;53.242;6.386;2022-12-10T14:10:32;188.30;;;35.73;;
51578;SDS011;47998;53.242;6.386;2022-12-10T14:13:04;155.33;;;31.57;;
51578;SDS011;47998;53.242;6.386;2022-12-10T14:15:30;211.53;;;40.33;;
51578;SDS011;47998;53.242;6.386;2022-12-10T14:18:04;205.90;;;38.97;;
51578;SDS011;47998;53.242;6.386;2022-12-10T14:20:36;254.47;;;43.20;;
51578;SDS011;47998;53.242;6.386;2022-12-10T14:25:57;320.03;;;49.23;;
51578;SDS011;47998;53.242;6.386;2022-12-10T14:28:29;332.93;;;49.07;;
51578;SDS011;47998;53.242;6.386;2022-12-10T14:30:58;231.63;;;41.80;;
51578;SDS011;47998;53.242;6.386;2022-12-10T14:33:24;284.30;;;45.77;;
51578;SDS011;47998;53.242;6.386;2022-12-10T14:35:51;267.13;;;43.93;;
51578;SDS011;47998;53.242;6.386;2022-12-10T14:38:19;295.03;;;47.67;;
51578;SDS011;47998;53.242;6.386;2022-12-10T14:40:54;332.80;;;53.47;;
51578;SDS011;47998;53.242;6.386;2022-12-10T14:43:22;338.73;;;51.37;;
51578;SDS011;47998;53.242;6.386;2022-12-10T14:45:58;341.40;;;52.23;;
51578;SDS011;47998;53.242;6.386;2022-12-10T14:48:26;342.70;;;50.53;;
51578;SDS011;47998;53.242;6.386;2022-12-10T14:50:52;324.20;;;48.33;;
51578;SDS011;47998;53.242;6.386;2022-12-10T14:53:24;224.53;;;41.43;;
51578;SDS011;47998;53.242;6.386;2022-12-10T14:56:10;256.77;;;43.57;;
51578;SDS011;47998;53.242;6.386;2022-12-10T14:59:04;368.77;;;49.80;;
51578;SDS011;47998;53.242;6.386;2022-12-10T15:01:46;324.07;;;48.87;;
51578;SDS011;47998;53.242;6.386;2022-12-10T15:04:16;436.17;;;56.70;;
51578;SDS011;47998;53.242;6.386;2022-12-10T15:06:44;368.97;;;49.17;;
51578;SDS011;47998;53.242;6.386;2022-12-10T15:09:14;235.40;;;37.80;;
51578;SDS011;47998;53.242;6.386;2022-12-10T15:11:43;385.05;;;49.08;;
51578;SDS011;47998;53.242;6.386;2022-12-10T15:14:13;352.60;;;45.20;;
51578;SDS011;47998;53.242;6.386;2022-12-10T15:16:45;494.07;;;56.17;;
51578;SDS011;47998;53.242;6.386;2022-12-10T15:21:57;476.20;;;57.47;;
51578;SDS011;47998;53.242;6.386;2022-12-10T15:24:26;437.67;;;55.30;;
51578;SDS011;47998;53.242;6.386;2022-12-10T15:26:52;534.77;;;61.00;;
51578;SDS011;47998;53.242;6.386;2022-12-10T15:31:56;505.10;;;58.87;;
51578;SDS011;47998;53.242;6.386;2022-12-10T15:34:26;461.20;;;54.83;;
51578;SDS011;47998;53.242;6.386;2022-12-10T15:36:59;375.50;;;50.20;;
51578;SDS011;47998;53.242;6.386;2022-12-10T15:39:31;377.77;;;46.60;;
51578;SDS011;47998;53.242;6.386;2022-12-10T15:42:08;265.80;;;38.83;;
51578;SDS011;47998;53.242;6.386;2022-12-10T15:44:54;282.58;;;39.33;;
51578;SDS011;47998;53.242;6.386;2022-12-10T15:47:24;342.37;;;43.57;;
51578;SDS011;47998;53.242;6.386;2022-12-10T15:49:55;263.63;;;39.67;;
51578;SDS011;47998;53.242;6.386;2022-12-10T15:52:25;364.17;;;48.87;;
51578;SDS011;47998;53.242;6.386;2022-12-10T15:54:53;324.70;;;44.00;;
51578;SDS011;47998;53.242;6.386;2022-12-10T15:57:24;355.17;;;47.63;;
51578;SDS011;47998;53.242;6.386;2022-12-10T15:59:53;329.87;;;45.70;;
51578;SDS011;47998;53.242;6.386;2022-12-10T16:04:52;162.90;;;35.87;;
51578;SDS011;47998;53.242;6.386;2022-12-10T16:07:18;292.93;;;42.97;;
51578;SDS011;47998;53.242;6.386;2022-12-10T16:09:44;435.67;;;64.40;;
51578;SDS011;47998;53.242;6.386;2022-12-10T16:12:11;303.67;;;61.77;;
51578;SDS011;47998;53.242;6.386;2022-12-10T16:14:38;372.83;;;75.90;;
51578;SDS011;47998;53.242;6.386;2022-12-10T16:17:11;435.53;;;105.90;;
51578;SDS011;47998;53.242;6.386;2022-12-10T16:19:37;319.93;;;74.87;;
51578;SDS011;47998;53.242;6.386;2022-12-10T16:22:04;352.30;;;87.83;;
51578;SDS011;47998;53.242;6.386;2022-12-10T16:24:30;322.23;;;53.87;;
51578;SDS011;47998;53.242;6.386;2022-12-10T16:26:55;376.73;;;56.50;;
51578;SDS011;47998;53.242;6.386;2022-12-10T16:29:21;324.53;;;44.97;;
51578;SDS011;47998;53.242;6.386;2022-12-10T16:31:48;330.57;;;55.70;;
51578;SDS011;47998;53.242;6.386;2022-12-10T16:34:14;224.03;;;40.10;;
51578;SDS011;47998;53.242;6.386;2022-12-10T16:36:40;229.57;;;42.10;;
51578;SDS011;47998;53.242;6.386;2022-12-10T16:39:05;282.60;;;44.30;;
51578;SDS011;47998;53.242;6.386;2022-12-10T16:41:31;256.50;;;48.27;;
51578;SDS011;47998;53.242;6.386;2022-12-10T16:43:57;260.37;;;39.50;;
51578;SDS011;47998;53.242;6.386;2022-12-10T16:46:23;183.33;;;32.17;;
51578;SDS011;47998;53.242;6.386;2022-12-10T16:48:49;268.43;;;43.60;;
51578;SDS011;47998;53.242;6.386;2022-12-10T16:51:21;164.43;;;29.30;;